createdAt,value
2022-09-17T00:00:11.308Z,1013.45
2022-09-17T00:05:18.692Z,1013.45
2022-09-17T00:10:25.782Z,1013.41
2022-09-17T00:15:33.028Z,1013.31
2022-09-17T00:20:40.430Z,1013.33
2022-09-17T00:25:47.568Z,1013.29
2022-09-17T00:30:54.842Z,1013.31
2022-09-17T00:36:02.155Z,1013.23
2022-09-17T00:41:09.311Z,1013.27
2022-09-17T00:46:16.724Z,1013.20
2022-09-17T00:51:23.943Z,1013.15
2022-09-17T00:56:31.039Z,1013.13
2022-09-17T01:01:38.291Z,1013.14
2022-09-17T01:06:45.594Z,1013.06
2022-09-17T01:11:52.709Z,1013.12
2022-09-17T01:16:59.972Z,1013.19
2022-09-17T01:22:07.287Z,1013.32
2022-09-17T01:27:14.369Z,1013.60
2022-09-17T01:32:21.519Z,1013.61
2022-09-17T01:37:30.746Z,1013.62
2022-09-17T01:42:35.980Z,1013.64
2022-09-17T01:47:43.193Z,1013.66
2022-09-17T01:52:50.533Z,1013.65
2022-09-17T01:57:57.638Z,1013.74
2022-09-17T02:03:04.909Z,1013.69
2022-09-17T02:08:12.242Z,1013.72
2022-09-17T02:13:19.311Z,1013.76
2022-09-17T02:18:26.499Z,1013.74
2022-09-17T02:23:33.803Z,1013.67
2022-09-17T02:28:40.933Z,1013.81
2022-09-17T02:33:48.148Z,1013.84
2022-09-17T02:38:55.469Z,1013.77
2022-09-17T02:44:02.582Z,1013.79
2022-09-17T02:49:09.748Z,1013.73
2022-09-17T02:54:17.048Z,1013.66
2022-09-17T02:59:24.155Z,1013.68
2022-09-17T03:04:31.356Z,1013.59
2022-09-17T03:09:38.691Z,1013.62
2022-09-17T03:14:45.763Z,1013.55
2022-09-17T03:19:52.995Z,1013.60
2022-09-17T03:25:00.327Z,1013.61
2022-09-17T03:30:07.397Z,1013.62
2022-09-17T03:35:14.678Z,1013.61
2022-09-17T03:40:22.074Z,1013.62
2022-09-17T03:45:29.113Z,1013.63
2022-09-17T03:50:36.299Z,1013.71
2022-09-17T03:55:43.672Z,1013.71
2022-09-17T04:00:50.709Z,1013.79
2022-09-17T04:05:57.966Z,1013.75
2022-09-17T04:11:05.369Z,1013.74
2022-09-17T04:16:12.518Z,1013.72
2022-09-17T04:21:19.662Z,1013.76
2022-09-17T04:26:27.041Z,1013.80
2022-09-17T04:31:34.256Z,1013.80
2022-09-17T04:36:41.414Z,1013.81
2022-09-17T04:41:48.735Z,1013.94
2022-09-17T04:46:56.071Z,1013.99
2022-09-17T04:52:03.105Z,1013.87
2022-09-17T04:57:10.507Z,1013.85
2022-09-17T05:02:17.685Z,1013.89
2022-09-17T05:07:24.907Z,1014.05
2022-09-17T05:12:34.509Z,1014.04
2022-09-17T05:17:39.304Z,1014.12
2022-09-17T05:22:46.476Z,1014.09
2022-09-17T05:27:53.836Z,1014.19
2022-09-17T05:33:00.909Z,1014.31
2022-09-17T05:38:08.113Z,1014.35
2022-09-17T05:43:15.465Z,1014.31
2022-09-17T05:48:22.520Z,1014.46
2022-09-17T05:53:29.727Z,1014.59
2022-09-17T05:58:37.056Z,1014.59
2022-09-17T06:03:44.129Z,1014.54
2022-09-17T06:08:51.341Z,1014.53
2022-09-17T06:13:58.697Z,1014.65
2022-09-17T06:19:05.748Z,1014.65
2022-09-17T06:24:12.958Z,1014.82
2022-09-17T06:29:20.278Z,1014.97
2022-09-17T06:34:27.362Z,1015.04
2022-09-17T06:39:34.567Z,1015.04
2022-09-17T06:44:41.898Z,1015.09
2022-09-17T06:49:48.978Z,1015.11
2022-09-17T06:54:56.161Z,1015.07
2022-09-17T07:00:03.508Z,1015.11
2022-09-17T07:05:10.599Z,1015.08
2022-09-17T07:10:17.862Z,1015.15
2022-09-17T07:15:25.235Z,1015.19
2022-09-17T07:20:32.333Z,1015.23
2022-09-17T07:25:39.586Z,1015.24
2022-09-17T07:30:46.962Z,1015.29
2022-09-17T07:35:54.029Z,1015.36
2022-09-17T07:41:01.237Z,1015.36
2022-09-17T07:46:08.631Z,1015.43
2022-09-17T07:51:15.644Z,1015.44
2022-09-17T07:56:22.914Z,1015.36
2022-09-17T08:01:30.352Z,1015.45
2022-09-17T08:06:37.360Z,1015.55
2022-09-17T08:11:55.600Z,1015.56
2022-09-17T08:16:52.003Z,1015.70
2022-09-17T08:21:59.101Z,1015.61
2022-09-17T08:27:06.340Z,1015.61
2022-09-17T08:32:13.668Z,1015.60
2022-09-17T08:37:20.789Z,1015.60
2022-09-17T08:42:27.992Z,1015.62
2022-09-17T08:47:35.350Z,1015.71
2022-09-17T08:52:42.408Z,1015.73
2022-09-17T08:57:49.591Z,1015.72
2022-09-17T09:02:56.924Z,1015.76
2022-09-17T09:08:04.017Z,1015.82
2022-09-17T09:13:11.285Z,1015.79
2022-09-17T09:18:18.583Z,1015.82
2022-09-17T09:23:25.633Z,1015.77
2022-09-17T09:28:32.836Z,1015.75
2022-09-17T09:33:43.325Z,1015.76
2022-09-17T09:38:47.312Z,1015.87
2022-09-17T09:44:05.926Z,1015.86
2022-09-17T09:49:01.903Z,1015.84
2022-09-17T09:54:08.979Z,1015.74
2022-09-17T09:59:16.177Z,1015.79
2022-09-17T10:04:23.523Z,1015.82
2022-09-17T10:09:30.603Z,1015.81
2022-09-17T10:14:37.834Z,1015.87
2022-09-17T10:19:45.225Z,1016.13
2022-09-17T10:24:52.320Z,1016.10
2022-09-17T10:29:59.529Z,1016.07
2022-09-17T10:35:06.896Z,1016.10
2022-09-17T10:40:14.082Z,1016.09
2022-09-17T10:45:21.256Z,1016.15
2022-09-17T10:50:28.675Z,1016.03
2022-09-17T10:55:35.765Z,1016.05
2022-09-17T11:00:43.006Z,1015.96
2022-09-17T11:05:50.394Z,1015.96
2022-09-17T11:10:57.476Z,1015.89
2022-09-17T11:16:04.742Z,1015.84
2022-09-17T11:21:12.049Z,1015.75
2022-09-17T11:26:19.221Z,1015.82
2022-09-17T11:31:26.541Z,1015.74
2022-09-17T11:36:33.817Z,1015.77
2022-09-17T11:41:40.901Z,1015.63
2022-09-17T11:46:48.203Z,1015.56
2022-09-17T11:51:55.453Z,1015.52
2022-09-17T11:57:06.418Z,1015.57
2022-09-17T12:02:09.858Z,1015.57
2022-09-17T12:07:17.019Z,1015.95
2022-09-17T12:12:47.607Z,1016.13
2022-09-17T12:17:31.320Z,1016.02
2022-09-17T12:22:40.432Z,1015.98
2022-09-17T12:27:45.714Z,1015.95
2022-09-17T12:32:52.988Z,1016.07
2022-09-17T12:38:00.364Z,1016.24
2022-09-17T12:43:07.479Z,1016.24
2022-09-17T12:48:14.742Z,1016.29
2022-09-17T12:53:22.129Z,1016.35
2022-09-17T12:58:29.175Z,1016.39
2022-09-17T13:03:36.346Z,1016.43
2022-09-17T13:08:43.640Z,1016.44
2022-09-17T13:13:50.770Z,1016.46
2022-09-17T13:19:16.546Z,1016.30
2022-09-17T13:24:05.435Z,1016.23
2022-09-17T13:29:12.566Z,1016.06
2022-09-17T13:34:19.807Z,1016.03
2022-09-17T13:39:27.118Z,1015.96
2022-09-17T13:44:34.300Z,1015.94
2022-09-17T13:49:41.563Z,1016.04
2022-09-17T13:54:48.922Z,1016.19
2022-09-17T13:59:56.097Z,1016.39
2022-09-17T14:05:03.368Z,1016.80
2022-09-17T14:10:10.680Z,1016.76
2022-09-17T14:15:17.792Z,1016.86
2022-09-17T14:20:26.260Z,1016.75
2022-09-17T14:25:33.603Z,1016.67
2022-09-17T14:30:40.686Z,1016.63
2022-09-17T14:35:47.884Z,1016.58
2022-09-17T14:40:55.314Z,1016.47
2022-09-17T14:46:02.455Z,1016.39
2022-09-17T14:51:09.714Z,1016.34
2022-09-17T14:56:17.086Z,1016.32
2022-09-17T15:01:24.267Z,1016.34
2022-09-17T15:06:31.424Z,1016.33
2022-09-17T15:11:38.767Z,1016.51
2022-09-17T15:16:45.900Z,1016.57
2022-09-17T15:21:53.174Z,1016.55
2022-09-17T15:27:00.509Z,1016.48
2022-09-17T15:32:07.613Z,1016.44
2022-09-17T15:37:14.839Z,1016.41
2022-09-17T15:42:22.143Z,1016.42
2022-09-17T15:47:29.272Z,1016.36
2022-09-17T15:52:36.415Z,1016.29
2022-09-17T15:57:43.822Z,1016.33
2022-09-17T16:02:51.088Z,1016.28
2022-09-17T16:07:58.154Z,1016.24
2022-09-17T16:13:05.511Z,1016.29
2022-09-17T16:18:12.599Z,1016.33
2022-09-17T16:23:19.799Z,1016.31
2022-09-17T16:28:27.202Z,1016.33
2022-09-17T16:33:34.334Z,1016.42
2022-09-17T16:38:41.590Z,1016.42
2022-09-17T16:43:48.982Z,1016.36
2022-09-17T16:48:56.130Z,1016.44
2022-09-17T16:54:03.365Z,1016.40
2022-09-17T16:59:10.687Z,1016.49
2022-09-17T17:04:17.828Z,1016.50
2022-09-17T17:09:25.071Z,1016.50
2022-09-17T17:14:32.373Z,1016.65
2022-09-17T17:19:39.662Z,1016.58
2022-09-17T17:24:46.852Z,1016.75
2022-09-17T17:29:54.194Z,1016.75
2022-09-17T17:35:01.277Z,1016.80
2022-09-17T17:40:08.565Z,1016.81
2022-09-17T17:45:15.809Z,1016.96
2022-09-17T17:50:24.242Z,1017.05
2022-09-17T17:55:31.450Z,1017.03
2022-09-17T18:00:38.789Z,1016.98
2022-09-17T18:05:45.865Z,1016.99
2022-09-17T18:10:53.102Z,1017.11
2022-09-17T18:16:00.545Z,1017.14
2022-09-17T18:21:07.538Z,1017.21
2022-09-17T18:26:14.781Z,1017.15
2022-09-17T18:31:22.170Z,1017.21
2022-09-17T18:36:29.474Z,1017.18
2022-09-17T18:41:36.886Z,1017.23
2022-09-17T18:46:44.345Z,1017.43
2022-09-17T18:51:51.461Z,1017.50
2022-09-17T18:56:58.674Z,1017.53
2022-09-17T19:02:06.090Z,1017.64
2022-09-17T19:07:13.141Z,1017.51
2022-09-17T19:12:20.336Z,1017.67
2022-09-17T19:17:27.725Z,1017.62
2022-09-17T19:22:34.800Z,1017.64
2022-09-17T19:27:42.057Z,1017.66
2022-09-17T19:32:49.384Z,1017.82
2022-09-17T19:37:56.449Z,1017.74
2022-09-17T19:43:03.687Z,1017.84
2022-09-17T19:48:11.108Z,1017.80
2022-09-17T19:53:19.108Z,1017.87
2022-09-17T19:58:26.313Z,1017.77
2022-09-17T20:03:33.627Z,1017.92
2022-09-17T20:08:44.660Z,1018.05
2022-09-17T20:13:47.955Z,1018.11
2022-09-17T20:18:55.351Z,1018.10
2022-09-17T20:24:02.426Z,1018.22
2022-09-17T20:29:09.669Z,1018.41
2022-09-17T20:34:17.022Z,1018.59
2022-09-17T20:39:24.770Z,1018.61
2022-09-17T20:44:31.645Z,1018.56
2022-09-17T20:49:38.980Z,1018.59
2022-09-17T20:54:46.128Z,1018.61
2022-09-17T20:59:53.364Z,1018.55
2022-09-17T21:05:00.678Z,1018.54
2022-09-17T21:10:07.782Z,1018.55
2022-09-17T21:15:14.974Z,1018.55
2022-09-17T21:20:22.372Z,1018.59
2022-09-17T21:25:29.511Z,1018.64
2022-09-17T21:30:36.800Z,1018.66
2022-09-17T21:35:44.160Z,1018.71
2022-09-17T21:40:51.286Z,1018.68
2022-09-17T21:45:58.518Z,1018.66
2022-09-17T21:51:05.894Z,1018.72
2022-09-17T21:56:13.036Z,1018.83
2022-09-17T22:01:20.485Z,1018.84
2022-09-17T22:06:27.721Z,1018.88
2022-09-17T22:11:34.779Z,1018.90
2022-09-17T22:16:41.961Z,1018.95
2022-09-17T22:21:49.358Z,1018.83
2022-09-17T22:26:58.129Z,1018.91
2022-09-17T22:32:03.616Z,1018.91
2022-09-17T22:37:10.946Z,1018.96
2022-09-17T22:42:18.065Z,1018.90
2022-09-17T22:47:25.282Z,1018.98
2022-09-17T22:52:32.615Z,1018.98
2022-09-17T22:57:39.692Z,1018.98
2022-09-17T23:02:46.946Z,1018.97
2022-09-17T23:07:54.256Z,1018.96
2022-09-17T23:13:01.297Z,1018.94
2022-09-17T23:18:08.578Z,1018.96
2022-09-17T23:23:15.915Z,1018.87
2022-09-17T23:28:23.040Z,1018.91
2022-09-17T23:33:30.266Z,1018.84
2022-09-17T23:38:37.638Z,1018.91
2022-09-17T23:43:44.691Z,1018.87
2022-09-17T23:48:51.977Z,1018.90
2022-09-17T23:53:59.375Z,1018.88
2022-09-17T23:59:06.452Z,1018.92
